Terminal Aerodrome Forecast
Issued by NWS

Home | Current Version | Previous Version | Text Only | Print | Product List | Glossary On
Versions: 1 2 3 4 5 6 7 8 9 10 11 12 13 14 15 16
490
FTUS43 KDLH 272358
TAFBRD
TAF
KBRD 272358Z 2800/2824 22014KT P6SM VCSH SCT120
     FM280300 21005KT P6SM SCT150
     FM280800 24007KT P6SM VCSH SCT050 BKN080
     FM281000 27009KT 6SM -SHRA BR BKN035 BKN070
     FM281300 18012KT P6SM VCSH SCT070
     FM281600 29012G20KT P6SM BKN060=

USA.gov is the U.S. government's official web portal to all federal, state and local government web resources and services.